Austin, Kansas
Current Conditions -  °F | °C
As of 8:52 AM on Sunday 23 Nov 2014 (Local Time) from KCNU Reporting Station
Overcast Overcast  
Wind Chill: 58°   Ceiling: 1100
Heat Index: 58°   Visibility: 10mi
Dew Point: 56°   Wind: 13mph
Humidity: 93%   Direction: 160°SSE
Pressure: 29.49"   Gusts: 22mph
Location:  37.6378°N, 95.4622°W
Report Text: KCNU 231452Z AUTO 16011G19KT 10SM OVC011 14/13 A2949 RMK AO2 SLP980 T01440133 56016
Loading
Personal Weather Stations






























Interactive Weather Map New forecast layout! Learn more

10-Day Weather Forecast

Advertisements
Track Severe Weather on mobile